Time;durP1;ratioP1;P1;durP2;ratioP2;P2;SDS_P1;SDS_P2;PMS_P1;PMS_P2;Temp;Humidity;BMP_temperature;BMP_pressure;BME280_temperature;BME280_humidity;BME280_pressure;Samples;Min_cycle;Max_cycle;Signal;HPM_P1;HPM_P2
2022/01/15 00:01:37;;;;;;;78.50;41.92;;;;;;;-4.42;100.00;96907.41;5012517;28;20087;-63
2022/01/15 00:04:03;;;;;;;83.60;46.47;;;;;;;-4.40;100.00;96900.53;5013240;28;20029;-63
2022/01/15 00:06:28;;;;;;;71.82;42.95;;;;;;;-4.37;100.00;96898.75;5013000;28;20113;-62
2022/01/15 00:08:54;;;;;;;61.83;39.13;;;;;;;-4.33;100.00;96897.00;5013215;28;20029;-63
2022/01/15 00:11:19;;;;;;;68.07;38.72;;;;;;;-4.32;100.00;96896.97;5012868;28;20050;-63
2022/01/15 00:13:52;;;;;;;60.90;38.53;;;;;;;-4.36;100.00;96900.47;5012971;28;20026;-63
2022/01/15 00:16:34;;;;;;;91.07;51.35;;;;;;;-4.39;100.00;96890.22;4993145;28;20049;-63
2022/01/15 00:19:11;;;;;;;76.40;42.38;;;;;;;-4.41;100.00;96891.97;4993143;28;20061;-63
2022/01/15 00:21:36;;;;;;;63.58;41.13;;;;;;;-4.41;100.00;96891.13;4993286;28;20099;-63
2022/01/15 00:24:02;;;;;;;72.50;41.20;;;;;;;-4.42;100.00;96885.13;4991897;28;20033;-62
2022/01/15 00:26:28;;;;;;;63.58;36.40;;;;;;;-4.39;100.00;96882.50;4992980;28;20034;-63
2022/01/15 00:28:53;;;;;;;63.83;37.92;;;;;;;-4.36;100.00;96879.06;4993310;28;20031;-63
2022/01/15 00:31:19;;;;;;;56.05;34.60;;;;;;;-4.35;100.00;96876.44;4992849;28;20033;-63
2022/01/15 00:33:44;;;;;;;51.75;33.70;;;;;;;-4.35;100.00;96873.88;4993191;28;20026;-63
2022/01/15 00:36:10;;;;;;;47.78;30.33;;;;;;;-4.36;100.00;96873.91;4993080;28;20087;-61
2022/01/15 00:38:35;;;;;;;43.58;29.67;;;;;;;-4.35;100.00;96868.72;4992943;28;20160;-62
2022/01/15 00:41:01;;;;;;;44.47;29.05;;;;;;;-4.37;100.00;96865.34;4992882;28;20026;-62
2022/01/15 00:43:26;;;;;;;41.40;28.05;;;;;;;-4.37;100.00;96865.34;4992705;28;20413;-62
2022/01/15 00:45:52;;;;;;;45.30;27.23;;;;;;;-4.39;100.00;96859.38;4992968;28;20037;-62
2022/01/15 00:48:17;;;;;;;39.10;27.90;;;;;;;-4.41;100.00;96860.28;4992790;28;20601;-62
2022/01/15 00:50:43;;;;;;;38.58;25.00;;;;;;;-4.38;100.00;96855.91;4992848;28;20750;-62
2022/01/15 00:53:08;;;;;;;37.72;26.00;;;;;;;-4.37;100.00;96861.94;4992471;28;20026;-62
2022/01/15 00:55:34;;;;;;;34.80;24.63;;;;;;;-4.42;100.00;96856.84;4993221;28;20768;-62
2022/01/15 00:57:59;;;;;;;32.55;24.30;;;;;;;-4.47;100.00;96848.34;4992769;28;20026;-62
2022/01/15 01:00:26;;;;;;;36.17;25.70;;;;;;;-4.49;100.00;96852.66;4992509;28;20034;-62
2022/01/15 01:02:52;;;;;;;38.05;25.08;;;;;;;-4.55;100.00;96855.28;4992597;28;20096;-62
2022/01/15 01:05:19;;;;;;;39.22;25.05;;;;;;;-4.60;100.00;96853.66;4992371;28;20493;-62
2022/01/15 01:07:45;;;;;;;31.40;21.42;;;;;;;-4.58;100.00;96852.78;4992347;28;20465;-61
2022/01/15 01:23:20;;;;;;;29.65;19.55;;;;;;;-4.60;100.00;96833.09;5011824;28;20045;-62
2022/01/15 01:25:49;;;;;;;28.58;19.35;;;;;;;-4.59;100.00;96833.94;5011260;28;20489;-62
2022/01/15 01:28:26;;;;;;;28.60;20.35;;;;;;;-4.58;100.00;96837.34;5011627;28;20022;-62
2022/01/15 01:31:04;;;;;;;24.77;19.02;;;;;;;-4.56;100.00;96835.59;5011711;28;20383;-62
2022/01/15 01:33:37;;;;;;;26.92;18.60;;;;;;;-4.55;100.00;96827.03;5011600;28;20065;-62
2022/01/15 01:36:14;;;;;;;28.40;19.60;;;;;;;-4.56;100.00;96825.31;5010714;28;20104;-62
2022/01/15 01:38:51;;;;;;;25.33;18.92;;;;;;;-4.62;100.00;96834.00;5010739;28;20030;-62
2022/01/15 01:41:20;;;;;;;23.92;17.80;;;;;;;-4.66;100.00;96829.75;5011585;28;20540;-62
2022/01/15 01:43:51;;;;;;;26.67;18.55;;;;;;;-4.70;100.00;96828.09;5011548;28;20434;-62
2022/01/15 01:48:50;;;;;;;25.25;18.02;;;;;;;-4.69;100.00;96820.38;5011932;28;20045;-62
2022/01/15 01:51:36;;;;;;;21.55;16.45;;;;;;;-4.65;100.00;96814.31;5011580;28;20477;-63
2022/01/15 01:54:06;;;;;;;21.42;15.30;;;;;;;-4.69;100.00;96815.22;5011540;28;20033;-62
2022/01/15 01:56:33;;;;;;;17.55;15.27;;;;;;;-4.70;100.00;96812.66;5011414;28;20489;-62
2022/01/15 01:58:59;;;;;;;19.60;15.05;;;;;;;-4.72;100.00;96814.41;5011352;28;20030;-62
2022/01/15 02:01:24;;;;;;;18.45;15.48;;;;;;;-4.74;100.00;96811.88;5011569;28;20112;-62
2022/01/15 02:03:50;;;;;;;18.98;14.38;;;;;;;-4.74;100.00;96811.88;5011255;28;20106;-62
2022/01/15 02:06:16;;;;;;;19.80;15.02;;;;;;;-4.75;100.00;96810.19;5011312;28;20087;-62
2022/01/15 02:08:41;;;;;;;18.63;14.95;;;;;;;-4.78;100.00;96810.19;5011261;28;20033;-62
2022/01/15 02:11:07;;;;;;;19.95;14.90;;;;;;;-4.82;100.00;96808.53;5011441;28;20041;-62
2022/01/15 02:13:37;;;;;;;18.05;14.98;;;;;;;-4.82;100.00;96800.84;5011223;28;20030;-62
2022/01/15 02:16:02;;;;;;;18.65;14.65;;;;;;;-4.83;100.00;96806.84;5011389;28;20118;-62
2022/01/15 02:18:28;;;;;;;17.02;14.77;;;;;;;-4.87;100.00;96800.88;5011338;28;20153;-62
2022/01/15 02:23:36;;;;;;;18.73;14.07;;;;;;;-4.88;100.00;96794.06;5011181;28;20458;-62
2022/01/15 02:26:07;;;;;;;17.80;13.43;;;;;;;-4.84;100.00;96788.03;5009528;28;20066;-62
2022/01/15 02:28:38;;;;;;;17.02;13.73;;;;;;;-4.79;100.00;96787.94;5011067;28;20068;-62
2022/01/15 02:31:15;;;;;;;14.85;13.30;;;;;;;-4.75;100.00;96790.47;5011162;28;20071;-62
2022/01/15 02:33:44;;;;;;;16.60;14.43;;;;;;;-4.71;100.00;96775.84;5011037;28;20030;-62
2022/01/15 02:36:13;;;;;;;20.48;14.70;;;;;;;-4.74;100.00;96773.34;5011284;28;20018;-62
2022/01/15 02:38:39;;;;;;;15.75;13.10;;;;;;;-4.77;100.00;96770.78;5010972;28;20072;-62
2022/01/15 02:41:05;;;;;;;18.27;14.00;;;;;;;-4.79;100.00;96772.53;5011139;28;20062;-62
2022/01/15 02:43:34;;;;;;;16.48;13.07;;;;;;;-4.85;100.00;96764.91;5011129;28;20053;-62
2022/01/15 02:46:18;;;;;;;18.27;14.02;;;;;;;-4.90;100.00;96765.84;5010966;28;20018;-62
2022/01/15 02:48:46;;;;;;;19.77;15.07;;;;;;;-4.92;100.00;96757.31;5012068;28;20115;-62
2022/01/15 02:51:12;;;;;;;16.90;13.60;;;;;;;-4.95;100.00;96753.91;5014625;28;20128;-62
2022/01/15 02:53:37;;;;;;;20.95;14.10;;;;;;;-5.00;100.00;96748.81;5014493;28;20026;-62
2022/01/15 02:56:03;;;;;;;18.23;12.60;;;;;;;-5.01;100.00;96744.56;5014469;28;20033;-62
2022/01/15 02:58:29;;;;;;;15.93;13.20;;;;;;;-4.98;100.00;96741.13;5014301;28;20430;-62
2022/01/15 03:00:54;;;;;;;17.10;14.43;;;;;;;-4.96;100.00;96740.25;5014498;28;20032;-62
2022/01/15 03:03:20;;;;;;;17.77;13.60;;;;;;;-4.94;100.00;96733.34;5014309;28;20219;-62
2022/01/15 03:05:45;;;;;;;20.77;14.90;;;;;;;-4.93;100.00;96729.91;5014407;28;20026;-62
2022/01/15 03:08:10;;;;;;;22.45;14.77;;;;;;;-4.90;100.00;96735.00;5014435;28;20109;-62
2022/01/15 03:10:36;;;;;;;23.75;16.60;;;;;;;-4.87;100.00;96731.53;5014101;28;20026;-62
2022/01/15 03:13:09;;;;;;;20.33;14.90;;;;;;;-4.88;100.00;96727.25;5014174;28;20041;-61
2022/01/15 03:15:34;;;;;;;20.88;14.48;;;;;;;-4.90;100.00;96718.72;5014020;28;20592;-62
2022/01/15 03:17:59;;;;;;;23.05;16.65;;;;;;;-4.90;100.00;96719.59;5014003;28;20053;-61
2022/01/15 03:20:25;;;;;;;16.38;14.38;;;;;;;-4.87;100.00;96720.41;5013812;28;20029;-62
2022/01/15 03:22:50;;;;;;;20.00;13.23;;;;;;;-4.89;100.00;96713.56;5014101;28;20022;-62
2022/01/15 03:25:16;;;;;;;17.40;13.88;;;;;;;-4.90;100.00;96718.72;5013369;28;20080;-62
2022/01/15 03:27:41;;;;;;;17.65;13.93;;;;;;;-4.91;100.00;96717.91;5013658;28;20025;-62
2022/01/15 03:30:09;;;;;;;16.38;13.23;;;;;;;-4.87;100.00;96712.69;5013903;28;20038;-62
2022/01/15 03:32:35;;;;;;;21.60;14.25;;;;;;;-4.88;100.00;96719.56;5013837;28;20036;-61
2022/01/15 03:35:00;;;;;;;16.50;13.25;;;;;;;-4.91;100.00;96719.59;5013938;28;20022;-62
2022/01/15 03:37:26;;;;;;;16.95;13.60;;;;;;;-4.95;100.00;96718.81;5013589;28;20025;-61
2022/01/15 03:39:51;;;;;;;15.23;12.13;;;;;;;-4.98;100.00;96720.56;5013670;28;20722;-62
2022/01/15 03:42:17;;;;;;;15.75;12.80;;;;;;;-5.03;100.00;96718.06;5013669;28;20049;-61
2022/01/15 03:44:45;;;;;;;18.85;12.32;;;;;;;-5.06;100.00;96721.53;5013456;28;20034;-62
2022/01/15 03:47:12;;;;;;;14.30;10.75;;;;;;;-5.05;100.00;96720.66;5013662;28;20558;-62
2022/01/15 03:49:38;;;;;;;14.82;12.40;;;;;;;-5.04;100.00;96713.78;5013414;28;20397;-62
2022/01/15 03:52:05;;;;;;;12.52;11.05;;;;;;;-5.04;100.00;96724.94;5013337;28;20107;-62
2022/01/15 03:54:31;;;;;;;13.73;10.90;;;;;;;-5.04;100.00;96717.22;5013255;28;20026;-62
2022/01/15 03:56:56;;;;;;;11.80;9.98;;;;;;;-5.06;100.00;96710.41;5013402;28;20026;-62
2022/01/15 03:59:22;;;;;;;12.23;8.93;;;;;;;-5.07;100.00;96717.28;5013261;28;20411;-61
2022/01/15 04:01:48;;;;;;;13.82;9.73;;;;;;;-5.06;100.00;96712.97;5012569;28;20516;-62
2022/01/15 04:04:14;;;;;;;12.60;10.43;;;;;;;-5.06;100.00;96711.25;5013287;28;20018;-62
2022/01/15 04:06:41;;;;;;;15.60;9.82;;;;;;;-5.05;100.00;96700.13;5012995;28;20064;-62
2022/01/15 04:09:07;;;;;;;9.52;8.30;;;;;;;-5.07;100.00;96708.69;5013152;28;20026;-60
2022/01/15 04:11:32;;;;;;;11.63;8.68;;;;;;;-5.08;100.00;96705.28;5012911;28;20087;-61
2022/01/15 04:13:58;;;;;;;8.90;8.00;;;;;;;-5.10;100.00;96701.03;5013042;28;20029;-61
2022/01/15 04:16:23;;;;;;;9.85;8.60;;;;;;;-5.10;100.00;96701.03;5012687;28;20045;-61
2022/01/15 04:18:48;;;;;;;11.52;7.82;;;;;;;-5.10;100.00;96701.88;5012929;28;20026;-61
2022/01/15 04:21:14;;;;;;;8.80;7.20;;;;;;;-5.13;100.00;96701.91;5013070;28;20022;-60
2022/01/15 04:23:40;;;;;;;9.55;8.00;;;;;;;-5.16;100.00;96694.25;5012875;28;20030;-60
2022/01/15 04:26:05;;;;;;;11.43;8.00;;;;;;;-5.20;100.00;96687.47;5012801;28;20018;-60
2022/01/15 04:28:34;;;;;;;10.55;7.53;;;;;;;-5.19;100.00;96690.03;5011336;28;20052;-60
2022/01/15 04:31:06;;;;;;;10.18;7.28;;;;;;;-5.21;100.00;96683.22;5012759;28;20117;-61
2022/01/15 04:33:36;;;;;;;10.18;8.00;;;;;;;-5.22;100.00;96687.50;5012521;28;20029;-60
2022/01/15 04:36:02;;;;;;;8.15;6.95;;;;;;;-5.21;100.00;96685.78;5012694;28;20021;-61
2022/01/15 04:38:30;;;;;;;8.98;7.60;;;;;;;-5.24;100.00;96684.09;5012421;28;20034;-61
2022/01/15 04:40:55;;;;;;;8.77;6.90;;;;;;;-5.24;100.00;96688.41;5012775;28;20025;-60
2022/01/15 04:43:20;;;;;;;9.25;7.63;;;;;;;-5.23;100.00;96685.78;5012652;28;20022;-61
2022/01/15 04:45:46;;;;;;;9.38;6.70;;;;;;;-5.24;100.00;96691.78;5012435;28;20080;-60
2022/01/15 04:48:11;;;;;;;11.18;8.25;;;;;;;-5.25;100.00;96684.97;5012486;28;20022;-60
2022/01/15 04:50:36;;;;;;;14.88;8.55;;;;;;;-5.27;100.00;96684.13;5012313;28;20034;-61
2022/01/15 04:53:03;;;;;;;9.68;8.02;;;;;;;-5.23;100.00;96695.22;5012399;28;20497;-61
2022/01/15 04:55:29;;;;;;;11.18;8.50;;;;;;;-5.23;100.00;96692.66;5012344;28;20096;-61
2022/01/15 04:57:54;;;;;;;9.07;7.90;;;;;;;-5.23;100.00;96690.94;5012233;28;20489;-60
2022/01/15 05:00:20;;;;;;;10.52;8.18;;;;;;;-5.27;100.00;96696.16;5012206;28;20026;-61
2022/01/15 05:02:45;;;;;;;11.48;7.70;;;;;;;-5.29;100.00;96691.03;5011931;28;20026;-61
2022/01/15 05:05:11;;;;;;;10.07;8.15;;;;;;;-5.34;100.00;96698.78;5012220;28;20022;-60
2022/01/15 05:07:36;;;;;;;11.48;7.88;;;;;;;-5.37;100.00;96703.13;5011939;28;20025;-61
2022/01/15 05:10:04;;;;;;;9.48;7.15;;;;;;;-5.40;100.00;96695.47;5012275;28;20079;-61
2022/01/15 05:12:41;;;;;;;9.75;6.97;;;;;;;-5.40;100.00;96701.44;5011005;28;20022;-61
2022/01/15 05:15:07;;;;;;;9.98;7.13;;;;;;;-5.42;100.00;96695.47;5011870;28;20034;-61
2022/01/15 05:17:32;;;;;;;10.30;7.55;;;;;;;-5.37;100.00;96696.25;5011853;28;20048;-61
2022/01/15 05:19:58;;;;;;;9.55;8.07;;;;;;;-5.28;100.00;96697.84;5011918;28;20114;-61
2022/01/15 05:22:23;;;;;;;12.82;8.43;;;;;;;-5.25;100.00;96699.53;5011882;28;20057;-61
2022/01/15 05:24:48;;;;;;;13.52;8.02;;;;;;;-5.24;100.00;96694.38;5012000;28;20029;-61
2022/01/15 05:27:14;;;;;;;12.35;7.72;;;;;;;-5.28;100.00;96699.59;5011154;28;20025;-61
2022/01/15 05:29:39;;;;;;;9.15;7.45;;;;;;;-5.33;100.00;96702.19;5011693;28;20034;-61
2022/01/15 05:32:05;;;;;;;10.43;6.80;;;;;;;-5.37;100.00;96696.25;5011826;28;20080;-61
2022/01/15 05:34:31;;;;;;;8.82;7.63;;;;;;;-5.40;100.00;96693.72;5011608;28;20030;-61
2022/01/15 05:36:56;;;;;;;10.68;8.15;;;;;;;-5.41;100.00;96696.34;5011772;28;20041;-61
2022/01/15 05:39:21;;;;;;;9.70;7.65;;;;;;;-5.41;100.00;96691.19;5011713;28;20030;-61
2022/01/15 05:41:47;;;;;;;9.13;7.53;;;;;;;-5.41;100.00;96696.34;5010356;28;20026;-61
2022/01/15 05:44:12;;;;;;;9.65;8.07;;;;;;;-5.41;100.00;96701.47;5011699;28;20049;-61
2022/01/15 05:46:37;;;;;;;10.20;8.45;;;;;;;-5.42;100.00;96699.72;5011517;28;20053;-62
2022/01/15 05:49:04;;;;;;;9.57;7.38;;;;;;;-5.44;100.00;96694.63;5011527;28;20068;-61
2022/01/15 05:51:30;;;;;;;10.00;8.50;;;;;;;-5.48;100.00;96688.69;5011556;28;20163;-61
2022/01/15 05:54:00;;;;;;;13.73;9.10;;;;;;;-5.46;100.00;96694.66;5011381;28;20029;-62
2022/01/15 05:56:27;;;;;;;10.52;8.30;;;;;;;-5.48;100.00;96691.25;5011525;28;20135;-61
2022/01/15 05:58:52;;;;;;;11.95;9.68;;;;;;;-5.51;100.00;96690.47;5011219;28;20065;-61
2022/01/15 06:01:18;;;;;;;12.82;10.18;;;;;;;-5.55;100.00;96692.22;5011596;28;20064;-61
2022/01/15 06:03:43;;;;;;;11.80;8.70;;;;;;;-5.57;100.00;96682.81;5011448;28;20025;-62
2022/01/15 06:06:09;;;;;;;11.75;9.65;;;;;;;-5.57;100.00;96686.25;5010900;28;20038;-61
2022/01/15 06:08:34;;;;;;;11.00;9.82;;;;;;;-5.57;100.00;96686.25;5011264;28;20033;-61
2022/01/15 06:10:59;;;;;;;11.88;8.13;;;;;;;-5.55;100.00;96676.81;5011332;28;20517;-61
2022/01/15 06:13:25;;;;;;;10.80;8.27;;;;;;;-5.54;100.00;96683.63;5011344;28;20018;-61
2022/01/15 06:15:50;;;;;;;11.55;9.13;;;;;;;-5.53;100.00;96680.19;5010984;28;20033;-61
2022/01/15 06:18:16;;;;;;;13.80;10.20;;;;;;;-5.54;100.00;96682.78;5011298;28;20045;-61
2022/01/15 06:20:41;;;;;;;15.65;11.85;;;;;;;-5.56;100.00;96682.81;5010902;28;20469;-61
2022/01/15 06:23:06;;;;;;;13.52;10.93;;;;;;;-5.58;100.00;96679.41;5011424;28;20130;-61
2022/01/15 06:25:32;;;;;;;13.23;10.23;;;;;;;-5.61;100.00;96679.47;5015099;28;20030;-61
2022/01/15 06:27:57;;;;;;;12.95;9.98;;;;;;;-5.62;100.00;96686.28;5015145;28;20069;-61
2022/01/15 06:30:23;;;;;;;14.30;10.90;;;;;;;-5.62;100.00;96685.47;5015151;28;20055;-61
2022/01/15 06:32:48;;;;;;;12.35;9.65;;;;;;;-5.67;100.00;96679.50;5014904;28;20030;-61
2022/01/15 06:35:16;;;;;;;12.13;10.32;;;;;;;-5.66;100.00;96687.22;5014900;28;20125;-62
2022/01/15 06:37:42;;;;;;;16.35;10.40;;;;;;;-5.62;100.00;96691.44;5013840;28;20029;-61
2022/01/15 06:40:08;;;;;;;16.33;10.70;;;;;;;-5.60;100.00;96686.28;5014770;28;20044;-62
2022/01/15 06:42:33;;;;;;;12.07;10.20;;;;;;;-5.62;100.00;96688.03;5014187;28;20040;-62
2022/01/15 06:44:59;;;;;;;15.20;10.38;;;;;;;-5.65;100.00;96683.78;5014662;28;20120;-61
2022/01/15 06:47:26;;;;;;;10.05;8.85;;;;;;;-5.67;100.00;96680.38;5014575;28;20029;-61
2022/01/15 06:49:52;;;;;;;11.85;9.95;;;;;;;-5.69;100.00;96686.38;5014488;28;20575;-61
2022/01/15 06:52:17;;;;;;;11.13;9.52;;;;;;;-5.71;100.00;96688.13;5014082;28;20029;-61
2022/01/15 06:54:42;;;;;;;13.93;9.88;;;;;;;-5.71;100.00;96683.00;5014523;28;20029;-62
2022/01/15 06:57:08;;;;;;;13.50;9.63;;;;;;;-5.67;100.00;96684.66;5014556;28;20022;-61
2022/01/15 06:59:33;;;;;;;11.77;10.57;;;;;;;-5.63;100.00;96678.63;5014325;28;20498;-62
2022/01/15 07:01:59;;;;;;;11.63;10.52;;;;;;;-5.63;100.00;96676.91;5014298;28;20026;-61
2022/01/15 07:04:24;;;;;;;15.13;10.88;;;;;;;-5.59;100.00;96680.28;5014173;28;20025;-61
2022/01/15 07:06:49;;;;;;;12.70;11.35;;;;;;;-5.58;100.00;96683.69;5011620;28;20025;-62
2022/01/15 07:09:15;;;;;;;14.77;10.73;;;;;;;-5.58;100.00;96689.69;5012908;28;20017;-61
2022/01/15 07:11:41;;;;;;;16.42;11.90;;;;;;;-5.60;100.00;96670.91;5012731;28;20025;-62
2022/01/15 07:14:06;;;;;;;12.63;10.60;;;;;;;-5.63;100.00;96669.19;5012789;28;20030;-61
2022/01/15 07:16:34;;;;;;;12.80;10.93;;;;;;;-5.63;100.00;96676.91;5013016;28;20038;-61
2022/01/15 07:18:59;;;;;;;12.23;10.98;;;;;;;-5.62;100.00;96677.75;5013367;28;20414;-61
2022/01/15 07:21:25;;;;;;;15.07;11.93;;;;;;;-5.64;100.00;96684.59;5013016;28;20034;-61
2022/01/15 07:23:50;;;;;;;17.15;14.68;;;;;;;-5.62;100.00;96682.91;5011606;28;20520;-61
2022/01/15 07:26:15;;;;;;;15.52;13.10;;;;;;;-5.64;100.00;96675.22;5010350;28;20032;-63
2022/01/15 07:28:41;;;;;;;15.90;14.18;;;;;;;-5.65;100.00;96678.63;5012873;28;20411;-60
2022/01/15 07:31:06;;;;;;;15.27;11.80;;;;;;;-5.63;100.00;96681.19;5012260;28;20025;-62
2022/01/15 07:33:31;;;;;;;16.35;12.98;;;;;;;-5.64;100.00;96682.91;5011486;28;20121;-60
2022/01/15 07:35:57;;;;;;;16.17;13.88;;;;;;;-5.62;100.00;96685.47;5011682;28;20045;-61
2022/01/15 07:38:23;;;;;;;18.70;14.60;;;;;;;-5.63;100.00;96681.19;5012332;28;20440;-62
2022/01/15 07:40:49;;;;;;;16.17;14.55;;;;;;;-5.62;100.00;96677.75;5008337;28;20033;-60
2022/01/15 07:43:15;;;;;;;16.52;14.02;;;;;;;-5.58;100.00;96688.81;5008519;28;20026;-61
2022/01/15 07:45:40;;;;;;;16.10;14.52;;;;;;;-5.56;100.00;96681.94;5008717;28;20414;-62
2022/01/15 07:48:06;;;;;;;16.30;14.43;;;;;;;-5.54;100.00;96691.34;5009775;28;20490;-61
2022/01/15 07:50:31;;;;;;;17.98;16.13;;;;;;;-5.54;100.00;96695.59;5008001;28;20034;-62
2022/01/15 07:52:58;;;;;;;17.52;15.68;;;;;;;-5.55;100.00;96691.34;5011160;28;20041;-63
2022/01/15 07:55:25;;;;;;;18.27;16.35;;;;;;;-5.53;100.00;96693.03;5012711;28;20028;-61
2022/01/15 07:57:51;;;;;;;16.00;14.40;;;;;;;-5.49;100.00;96694.69;5007208;28;20030;-53
2022/01/15 08:00:17;;;;;;;21.10;17.63;;;;;;;-5.44;100.00;96692.06;5011258;28;20714;-51
2022/01/15 08:02:43;;;;;;;23.85;19.63;;;;;;;-5.35;100.00;96691.09;5010975;28;20087;-53
2022/01/15 08:05:10;;;;;;;25.27;19.30;;;;;;;-5.29;100.00;96701.28;5012403;28;20026;-52
2022/01/15 08:07:37;;;;;;;21.63;18.08;;;;;;;-5.25;100.00;96697.81;5012020;28;20096;-52
2022/01/15 08:10:06;;;;;;;21.85;16.25;;;;;;;-5.26;100.00;96695.28;5011704;28;20018;-52
2022/01/15 08:12:31;;;;;;;21.90;17.50;;;;;;;-5.25;100.00;96697.81;5011932;28;20025;-54
2022/01/15 08:14:57;;;;;;;26.75;21.27;;;;;;;-5.25;100.00;96690.09;5011494;28;20417;-54
2022/01/15 08:17:22;;;;;;;27.65;20.20;;;;;;;-5.21;100.00;96696.06;5010987;28;20042;-59
2022/01/15 08:19:48;;;;;;;29.02;20.73;;;;;;;-5.18;100.00;96694.31;5008263;28;20042;-53
2022/01/15 08:22:13;;;;;;;27.65;20.45;;;;;;;-5.19;100.00;96697.75;5011687;28;20041;-55
2022/01/15 08:24:39;;;;;;;26.83;19.35;;;;;;;-5.18;100.00;96689.16;5012659;28;20018;-53
2022/01/15 08:27:04;;;;;;;28.90;19.90;;;;;;;-5.18;100.00;96688.31;5012719;28;20022;-56
2022/01/15 08:29:30;;;;;;;30.55;20.35;;;;;;;-5.16;100.00;96691.69;5012618;28;20028;-55
2022/01/15 08:31:56;;;;;;;25.33;19.63;;;;;;;-5.12;100.00;96693.34;5012219;28;20500;-53
2022/01/15 08:34:21;;;;;;;30.92;23.40;;;;;;;-5.11;100.00;96694.22;5012504;28;20490;-54
2022/01/15 08:36:47;;;;;;;38.03;25.83;;;;;;;-5.11;100.00;96689.91;5011656;28;20030;-54
2022/01/15 08:39:12;;;;;;;46.22;29.52;;;;;;;-5.09;100.00;96693.28;5011937;28;20026;-52
2022/01/15 08:41:38;;;;;;;38.25;25.98;;;;;;;-5.06;100.00;96690.72;5010216;28;20105;-54
2022/01/15 08:44:05;;;;;;;41.03;28.92;;;;;;;-5.07;100.00;96690.72;5011587;28;20482;-52
2022/01/15 08:46:30;;;;;;;57.42;51.13;;;;;;;-5.05;100.00;96688.97;5011818;28;20029;-50
2022/01/15 08:48:56;;;;;;;45.58;37.08;;;;;;;-5.05;100.00;96687.28;5010915;28;20022;-51
2022/01/15 08:51:21;;;;;;;46.63;32.63;;;;;;;-5.05;100.00;96694.13;5012155;28;20030;-54
2022/01/15 08:53:46;;;;;;;43.63;32.03;;;;;;;-5.02;100.00;96688.94;5007415;28;20513;-55
2022/01/15 08:56:12;;;;;;;42.53;30.58;;;;;;;-4.95;100.00;96692.25;5010918;28;20080;-52
2022/01/15 08:58:37;;;;;;;39.53;30.65;;;;;;;-4.90;100.00;96682.75;5011365;28;20448;-55
2022/01/15 09:01:04;;;;;;;41.08;30.48;;;;;;;-4.86;100.00;96687.00;5011366;28;20060;-51
2022/01/15 09:03:30;;;;;;;37.72;29.20;;;;;;;-4.84;100.00;96692.09;5010995;28;20033;-53
2022/01/15 09:05:56;;;;;;;36.45;27.15;;;;;;;-4.82;100.00;96688.66;5011948;28;20030;-55
2022/01/15 09:08:24;;;;;;;33.40;27.50;;;;;;;-4.79;100.00;96685.16;5011601;28;20022;-51
2022/01/15 09:10:53;;;;;;;31.73;25.50;;;;;;;-4.78;100.00;96682.59;5010248;28;20034;-52
2022/01/15 09:13:19;;;;;;;37.80;27.10;;;;;;;-4.73;100.00;96687.66;5010804;28;20083;-52
2022/01/15 09:15:45;;;;;;;30.08;24.67;;;;;;;-4.70;100.00;96686.75;5010986;28;20038;-53
2022/01/15 09:18:10;;;;;;;30.42;25.13;;;;;;;-4.71;100.00;96680.78;5011293;28;20026;-51
2022/01/15 09:20:35;;;;;;;26.75;23.13;;;;;;;-4.71;100.00;96685.91;5011310;28;20030;-51
2022/01/15 09:23:01;;;;;;;32.63;23.60;;;;;;;-4.71;100.00;96678.22;5011255;28;20069;-52
2022/01/15 09:25:27;;;;;;;26.30;21.98;;;;;;;-4.70;100.00;96679.91;5011072;28;20030;-53
2022/01/15 09:30:38;;;;;;;30.98;23.58;;;;;;;-4.07;100.00;96679.69;5010680;28;20559;-54
2022/01/15 09:33:04;;;;;;;26.80;22.63;;;;;;;-3.31;100.00;96671.34;5011289;28;20033;-54
2022/01/15 09:35:30;;;;;;;26.85;21.08;;;;;;;-2.64;100.00;96679.31;5008214;28;20026;-50
2022/01/15 09:37:56;;;;;;;23.25;20.63;;;;;;;-2.02;100.00;96670.84;5008376;28;20421;-52
2022/01/15 09:40:24;;;;;;;16.98;15.05;;;;;;;-1.43;99.74;96672.72;5010852;28;20026;-54
2022/01/15 09:42:50;;;;;;;18.02;14.27;;;;;;;-1.14;98.50;96671.00;5009207;28;20026;-51
2022/01/15 09:45:17;;;;;;;15.27;13.10;;;;;;;-0.71;97.68;96669.69;5008854;28;20071;-50
2022/01/15 09:47:43;;;;;;;14.68;13.10;;;;;;;-0.38;98.32;96672.06;5008621;28;20061;-55
2022/01/15 09:50:13;;;;;;;15.75;13.85;;;;;;;-0.01;96.63;96664.81;5009799;28;20045;-53
2022/01/15 09:52:39;;;;;;;10.77;9.77;;;;;;;0.32;95.25;96663.66;5010572;28;20053;-53
2022/01/15 09:55:09;;;;;;;11.20;10.15;;;;;;;0.50;95.30;96655.25;5011142;28;20030;-52
2022/01/15 09:57:36;;;;;;;10.75;9.35;;;;;;;0.71;94.03;96653.63;5010554;28;20076;-54
2022/01/15 10:00:07;;;;;;;14.85;13.52;;;;;;;0.77;95.78;96665.47;5013789;28;20486;-55
2022/01/15 10:02:33;;;;;;;13.38;10.20;;;;;;;0.69;95.60;96658.00;5013708;28;20105;-53
2022/01/15 10:04:58;;;;;;;10.68;9.68;;;;;;;0.50;95.01;96659.59;5013737;28;20053;-56
2022/01/15 10:07:27;;;;;;;8.95;8.10;;;;;;;0.56;94.98;96657.63;5014045;28;20462;-55
2022/01/15 10:09:54;;;;;;;9.27;8.38;;;;;;;0.63;96.33;96662.56;5014362;28;20030;-57
2022/01/15 10:12:25;;;;;;;9.93;8.85;;;;;;;0.83;97.23;96661.81;5014644;28;20060;-55
2022/01/15 10:14:51;;;;;;;17.33;10.10;;;;;;;0.83;95.85;96657.50;5012168;28;20029;-55
2022/01/15 10:17:24;;;;;;;11.48;10.38;;;;;;;1.11;96.51;96647.81;5014315;28;20460;-55
2022/01/15 10:19:50;;;;;;;11.90;10.57;;;;;;;1.29;94.67;96656.59;5012068;28;20093;-55
2022/01/15 10:22:18;;;;;;;11.85;10.68;;;;;;;1.42;95.02;96652.59;5014503;28;20567;-54
2022/01/15 10:24:53;;;;;;;11.00;9.90;;;;;;;1.48;94.88;96651.50;5014492;28;20026;-54
2022/01/15 10:27:36;;;;;;;9.63;8.13;;;;;;;1.51;94.11;96645.34;5012358;28;20018;-53
2022/01/15 10:30:14;;;;;;;9.32;8.38;;;;;;;1.59;93.19;96653.66;5013152;28;20030;-57
2022/01/15 10:32:50;;;;;;;9.65;8.70;;;;;;;1.63;94.34;96649.19;5014656;28;20038;-56
2022/01/15 10:35:16;;;;;;;8.52;7.63;;;;;;;1.67;93.66;96646.44;5014880;28;20486;-53
2022/01/15 10:37:51;;;;;;;8.57;7.75;;;;;;;1.90;93.10;96642.03;5014694;28;20109;-56
2022/01/15 10:40:19;;;;;;;10.10;8.18;;;;;;;2.25;93.72;96641.41;5014718;28;20405;-53
2022/01/15 10:42:57;;;;;;;8.23;7.50;;;;;;;2.41;92.17;96647.59;5013945;28;20029;-50
2022/01/15 10:45:24;;;;;;;9.38;8.52;;;;;;;2.55;91.16;96639.22;5011302;28;20037;-53
2022/01/15 10:47:53;;;;;;;7.93;7.13;;;;;;;2.64;88.06;96640.53;5013241;28;20045;-54
2022/01/15 10:50:29;;;;;;;7.15;6.45;;;;;;;2.71;87.91;96634.16;5011687;28;20029;-49
2022/01/15 10:52:57;;;;;;;7.00;6.40;;;;;;;2.84;87.02;96634.41;5012775;28;20505;-53
2022/01/15 10:55:28;;;;;;;6.43;5.82;;;;;;;2.92;89.28;96633.22;5011549;28;20456;-53
2022/01/15 10:57:59;;;;;;;5.88;5.38;;;;;;;3.09;87.56;96629.81;5011790;28;20056;-53
2022/01/15 11:00:51;;;;;;;5.85;5.35;;;;;;;3.18;85.08;96628.53;5012398;28;20037;-54
2022/01/15 11:03:17;;;;;;;4.95;4.45;;;;;;;3.37;85.02;96625.91;5012301;28;20448;-53
2022/01/15 11:05:42;;;;;;;5.45;5.05;;;;;;;3.54;83.76;96623.34;5013723;28;20072;-56
2022/01/15 11:08:12;;;;;;;6.93;5.45;;;;;;;3.90;83.77;96629.38;5013283;28;20026;-53
2022/01/15 11:10:37;;;;;;;7.28;6.35;;;;;;;3.81;80.55;96624.63;5012790;28;20034;-55
2022/01/15 11:13:06;;;;;;;9.07;8.18;;;;;;;4.08;82.55;96619.78;5010216;28;20041;-54
2022/01/15 11:15:33;;;;;;;6.75;5.93;;;;;;;4.21;81.45;96613.94;5010487;28;20057;-53
2022/01/15 11:17:59;;;;;;;14.02;6.55;;;;;;;4.39;80.11;96606.91;4994506;28;20114;-52
2022/01/15 11:20:29;;;;;;;7.90;6.22;;;;;;;4.49;78.01;96599.44;5004981;28;20026;-51
2022/01/15 11:22:55;;;;;;;6.10;5.53;;;;;;;4.47;78.82;96601.28;5013983;28;20030;-53
2022/01/15 11:25:21;;;;;;;4.53;4.13;;;;;;;4.48;78.80;96598.59;5014005;28;20076;-58
2022/01/15 11:27:46;;;;;;;4.15;3.75;;;;;;;4.37;78.35;96600.94;5013991;28;20413;-52
2022/01/15 11:30:12;;;;;;;3.50;3.30;;;;;;;4.32;79.10;96595.13;5013994;28;20030;-53
2022/01/15 11:32:41;;;;;;;3.80;3.50;;;;;;;4.33;78.44;96594.19;5013849;28;20034;-53
2022/01/15 11:35:08;;;;;;;4.55;4.15;;;;;;;4.62;78.82;96581.38;5013841;28;20080;-57
2022/01/15 11:37:49;;;;;;;5.53;4.93;;;;;;;4.84;75.97;96578.41;5013631;28;20064;-54